createdAt,value
2018-09-26T09:34:53.273Z,99785.67
2018-09-26T09:37:21.951Z,99786.21
2018-09-26T09:39:57.195Z,99786.48
2018-09-26T09:42:25.933Z,99790.29
2018-09-26T09:44:54.678Z,99788.66
2018-09-26T09:47:23.526Z,99782.17
2018-09-26T09:49:52.234Z,99784.88
2018-09-26T09:52:20.886Z,99781.90
2018-09-26T09:54:49.570Z,99786.51
2018-09-26T09:57:18.385Z,99788.95
2018-09-26T09:59:47.101Z,99786.23
2018-09-26T10:02:27.986Z,99784.34
2018-09-26T10:04:56.758Z,99783.52
2018-09-26T10:07:25.730Z,99780.23
2018-09-26T10:09:54.413Z,99769.39
2018-09-26T10:12:23.184Z,99768.56
2018-09-26T10:14:51.839Z,99762.56
2018-09-26T10:17:20.604Z,99768.46
2018-09-26T10:19:49.290Z,99762.75
2018-09-26T10:22:18.186Z,99763.27
2018-09-26T10:24:47.062Z,99758.55
2018-09-26T10:27:15.734Z,99763.16
2018-09-26T10:29:44.647Z,99758.02
2018-09-26T10:32:13.557Z,99755.28
2018-09-26T10:34:42.391Z,99744.99
2018-09-26T10:37:11.197Z,99731.92
2018-09-26T10:39:39.837Z,99736.76
2018-09-26T10:42:08.514Z,99740.77
2018-09-26T10:44:37.214Z,99740.50
2018-09-26T10:47:05.905Z,99733.70
2018-09-26T10:49:34.616Z,99725.81
2018-09-26T10:52:14.075Z,99733.26
2018-09-26T10:54:43.002Z,99733.42
2018-09-26T10:57:34.849Z,99731.83
2018-09-26T11:00:04.829Z,99725.02
2018-09-26T11:02:33.551Z,99722.50
2018-09-26T11:05:06.931Z,99719.50
2018-09-26T11:07:35.717Z,99719.50
2018-09-26T11:10:04.479Z,99719.28
2018-09-26T11:12:33.190Z,99719.47
2018-09-26T11:15:01.979Z,99718.86
2018-09-26T11:17:30.865Z,99715.79
2018-09-26T11:19:59.633Z,99718.50
2018-09-26T11:22:28.301Z,99715.08
2018-09-26T11:24:57.118Z,99708.19
2018-09-26T11:27:25.802Z,99705.94
2018-09-26T11:29:54.575Z,99691.81
2018-09-26T11:32:23.366Z,99697.45
2018-09-26T11:34:52.049Z,99691.39
2018-09-26T11:37:20.871Z,99691.78
2018-09-26T11:39:49.566Z,99695.07
2018-09-26T11:42:18.213Z,99696.45
2018-09-26T11:44:46.988Z,99698.72
2018-09-26T11:47:15.699Z,99693.28
2018-09-26T11:49:44.400Z,99691.34
2018-09-26T11:52:13.493Z,99690.11
2018-09-26T11:55:03.908Z,99682.44
2018-09-26T11:57:33.093Z,99668.23
2018-09-26T12:00:01.853Z,99665.02
2018-09-26T12:02:30.655Z,99660.61
2018-09-26T12:04:59.220Z,99663.60
2018-09-26T12:07:27.961Z,99670.48
2018-09-26T12:09:57.021Z,99666.92
2018-09-26T12:12:25.867Z,99655.18
2018-09-26T12:14:54.597Z,99657.19
2018-09-26T12:17:23.508Z,99650.03
2018-09-26T12:19:55.686Z,99645.89
2018-09-26T12:22:24.460Z,99647.55
2018-09-26T12:24:53.222Z,99644.70
2018-09-26T12:27:21.971Z,99641.51
2018-09-26T12:29:50.974Z,99638.83
2018-09-26T12:32:19.726Z,99631.31
2018-09-26T12:34:48.865Z,99630.82
2018-09-26T12:37:17.603Z,99625.25
2018-09-26T12:39:46.265Z,99632.39
2018-09-26T12:42:15.043Z,99626.09
2018-09-26T12:44:43.882Z,99624.64
2018-09-26T12:47:12.669Z,99620.22
2018-09-26T12:49:41.666Z,99608.41
2018-09-26T12:52:10.686Z,99605.27
2018-09-26T12:54:39.408Z,99608.55
2018-09-26T12:57:08.473Z,99605.95
2018-09-26T12:59:37.183Z,99604.25
2018-09-26T13:02:06.137Z,99601.97
2018-09-26T13:04:35.068Z,99598.38
2018-09-26T13:07:04.043Z,99597.16
2018-09-26T13:12:33.658Z,99595.36
2018-09-26T13:15:02.760Z,99590.22
2018-09-26T13:17:31.510Z,99584.38
2018-09-26T13:20:00.410Z,99583.27
2018-09-26T13:22:29.239Z,99579.73
2018-09-26T13:24:58.002Z,99573.72
2018-09-26T13:27:26.871Z,99568.41
2018-09-26T13:30:02.541Z,99567.46
2018-09-26T13:32:31.638Z,99563.78
2018-09-26T13:35:00.330Z,99558.66
2018-09-26T13:37:29.167Z,99556.61
2018-09-26T13:39:57.957Z,99562.08
2018-09-26T13:42:26.892Z,99562.92
2018-09-26T13:44:55.612Z,99549.22
2018-09-26T13:47:40.698Z,99554.84
2018-09-26T13:50:10.294Z,99552.55
2018-09-26T13:52:39.088Z,99537.96
2018-09-26T13:55:08.984Z,99538.36
2018-09-26T13:57:48.173Z,99536.09
2018-09-26T14:00:17.676Z,99529.37
2018-09-26T14:02:47.219Z,99528.48
2018-09-26T14:05:16.078Z,99538.38
2018-09-26T14:07:45.500Z,99536.92
2018-09-26T14:10:14.693Z,99539.38
2018-09-26T14:12:44.063Z,99543.22
2018-09-26T14:15:12.898Z,99538.34
2018-09-26T14:17:42.007Z,99544.42
2018-09-26T14:20:10.952Z,99543.56
2018-09-26T14:22:39.731Z,99541.63
2018-09-26T14:25:08.442Z,99535.27
2018-09-26T14:27:37.793Z,99536.78
2018-09-26T14:30:07.364Z,99528.30
2018-09-26T14:32:49.275Z,99528.41
2018-09-26T14:35:18.726Z,99528.50
2018-09-26T14:37:47.980Z,99527.71
2018-09-26T14:40:17.389Z,99526.53
2018-09-26T14:42:46.868Z,99524.16
2018-09-26T14:45:16.278Z,99522.02
2018-09-26T14:47:45.819Z,99529.09
2018-09-26T14:50:14.631Z,99520.26
2018-09-26T14:52:43.419Z,99512.09
2018-09-26T14:55:12.598Z,99516.92
2018-09-26T14:57:41.484Z,99507.31
2018-09-26T15:00:10.339Z,99504.36
2018-09-26T15:05:32.470Z,99500.96
2018-09-26T15:08:01.559Z,99494.04
2018-09-26T15:10:30.343Z,99495.50
2018-09-26T15:12:59.100Z,99494.41
2018-09-26T15:15:28.042Z,99489.75
2018-09-26T15:18:02.358Z,99488.53
2018-09-26T15:20:31.631Z,99480.86
2018-09-26T15:23:01.323Z,99478.08
2018-09-26T15:25:30.102Z,99476.88
2018-09-26T15:27:59.670Z,99477.20
2018-09-26T15:30:28.601Z,99472.27
2018-09-26T15:32:57.460Z,99473.02
2018-09-26T15:35:26.349Z,99468.84
2018-09-26T15:37:55.109Z,99460.84
2018-09-26T15:40:24.083Z,99466.71
2018-09-26T15:42:52.963Z,99463.30
2018-09-26T15:45:21.706Z,99466.79
2018-09-26T15:47:50.660Z,99464.76
2018-09-26T15:50:19.493Z,99470.02
2018-09-26T15:52:50.317Z,99461.64
2018-09-26T15:55:19.102Z,99453.94
2018-09-26T15:57:47.971Z,99463.49
2018-09-26T16:00:17.059Z,99459.77
2018-09-26T16:02:46.161Z,99467.59
2018-09-26T16:05:15.097Z,99465.80
2018-09-26T16:07:44.055Z,99465.03
2018-09-26T16:10:13.031Z,99458.15
2018-09-26T16:12:41.833Z,99463.36
2018-09-26T16:15:11.021Z,99457.77
2018-09-26T16:17:40.041Z,99463.65
2018-09-26T16:20:08.969Z,99468.55
2018-09-26T16:22:38.214Z,99467.11
2018-09-26T16:25:07.686Z,99469.38
2018-09-26T16:27:36.449Z,99468.36
2018-09-26T16:30:05.930Z,99477.58
2018-09-26T16:32:34.972Z,99479.59
2018-09-26T16:35:03.781Z,99475.94
2018-09-26T16:37:32.529Z,99472.88
2018-09-26T16:40:01.486Z,99481.80
2018-09-26T16:42:30.372Z,99481.20
2018-09-26T16:44:59.316Z,99489.11
2018-09-26T16:47:28.335Z,99497.81
2018-09-26T16:49:57.349Z,99496.41
2018-09-26T16:52:26.169Z,99494.42
2018-09-26T16:54:55.122Z,99503.88
2018-09-26T16:57:23.921Z,99505.70
2018-09-26T16:59:52.680Z,99508.80
2018-09-26T17:02:21.683Z,99506.77
2018-09-26T17:04:50.597Z,99500.42
2018-09-26T17:07:19.388Z,99496.95
2018-09-26T17:09:48.511Z,99498.41
2018-09-26T17:12:17.504Z,99501.49
2018-09-26T17:14:46.470Z,99510.31
2018-09-26T17:17:15.706Z,99510.42
2018-09-26T17:19:44.515Z,99514.39
2018-09-26T17:22:13.465Z,99517.25
2018-09-26T17:24:42.407Z,99514.63
2018-09-26T17:27:11.507Z,99516.36
2018-09-26T17:29:40.306Z,99517.77
2018-09-26T17:32:09.281Z,99519.17
2018-09-26T17:34:38.181Z,99516.02
2018-09-26T17:37:06.961Z,99511.73
2018-09-26T17:39:35.808Z,99515.07
2018-09-26T17:42:04.657Z,99514.15
2018-09-26T17:44:33.420Z,99510.44
2018-09-26T17:47:02.339Z,99512.28
2018-09-26T17:49:31.081Z,99514.25
2018-09-26T17:52:00.113Z,99517.67
2018-09-26T17:54:29.130Z,99518.30
2018-09-26T17:56:58.047Z,99519.45
2018-09-26T17:59:26.809Z,99525.19
2018-09-26T18:01:55.978Z,99522.50
2018-09-26T18:04:25.063Z,99516.73
2018-09-26T18:06:53.991Z,99521.97
2018-09-26T18:09:22.890Z,99521.80
2018-09-26T18:11:52.175Z,99517.74
2018-09-26T18:14:20.932Z,99516.17
2018-09-26T18:16:49.962Z,99526.22
2018-09-26T18:19:18.767Z,99526.80
2018-09-26T18:21:47.846Z,99526.58
2018-09-26T18:24:16.752Z,99527.42
2018-09-26T18:26:45.544Z,99530.14
2018-09-26T18:29:14.338Z,99532.33
2018-09-26T18:31:43.160Z,99534.25
2018-09-26T18:34:12.128Z,99538.34
2018-09-26T18:36:41.103Z,99542.95
2018-09-26T18:39:11.151Z,99539.98
2018-09-26T18:41:39.990Z,99546.20
2018-09-26T18:44:08.694Z,99548.92
2018-09-26T18:46:37.487Z,99545.38
2018-09-26T18:49:06.207Z,99549.98
2018-09-26T18:51:35.086Z,99548.10
2018-09-26T18:54:04.059Z,99554.33
2018-09-26T18:56:32.801Z,99550.79
2018-09-26T18:59:02.029Z,99551.89
2018-09-26T19:01:31.163Z,99547.55
2018-09-26T19:04:00.110Z,99550.79
2018-09-26T19:06:28.999Z,99550.24
2018-09-26T19:08:58.077Z,99554.58
2018-09-26T19:11:26.871Z,99558.37
2018-09-26T19:13:55.815Z,99552.13
2018-09-26T19:16:24.607Z,99553.77
2018-09-26T19:18:53.463Z,99549.97
2018-09-26T19:21:22.354Z,99554.27
2018-09-26T19:23:51.376Z,99549.38
2018-09-26T19:26:20.353Z,99553.15
2018-09-26T19:28:49.527Z,99548.83
2018-09-26T19:31:18.408Z,99543.94
2018-09-26T19:33:47.422Z,99542.86
2018-09-26T19:36:16.208Z,99538.51
2018-09-26T19:38:45.083Z,99539.29
2018-09-26T19:41:14.260Z,99544.16
2018-09-26T19:43:43.555Z,99541.16
2018-09-26T19:46:12.291Z,99546.83
2018-09-26T19:48:41.397Z,99544.09
2018-09-26T19:51:10.554Z,99545.72
2018-09-26T19:53:39.518Z,99548.36
2018-09-26T19:56:08.528Z,99548.33
2018-09-26T19:58:37.608Z,99551.02
2018-09-26T20:01:06.639Z,99549.40
2018-09-26T20:03:35.467Z,99556.39
2018-09-26T20:06:04.350Z,99560.16
2018-09-26T20:08:33.766Z,99558.78
2018-09-26T20:11:02.606Z,99565.22
2018-09-26T20:13:31.466Z,99565.98
2018-09-26T20:16:00.339Z,99559.17
2018-09-26T20:18:29.254Z,99568.88
2018-09-26T20:20:58.073Z,99583.45
2018-09-26T20:23:26.904Z,99572.83
2018-09-26T20:25:55.952Z,99572.72
2018-09-26T20:28:24.804Z,99572.13
2018-09-26T20:30:53.651Z,99569.42
2018-09-26T20:33:22.624Z,99579.17
2018-09-26T20:35:51.481Z,99571.30
2018-09-26T20:38:20.343Z,99563.73
2018-09-26T20:40:49.260Z,99565.85
2018-09-26T20:43:18.135Z,99557.48
2018-09-26T20:45:46.950Z,99561.52
2018-09-26T20:48:15.900Z,99562.02
2018-09-26T20:50:44.679Z,99562.00
2018-09-26T20:53:14.024Z,99562.27
2018-09-26T20:55:42.834Z,99559.83
2018-09-26T20:58:11.575Z,99565.45
2018-09-26T21:00:40.545Z,99566.98
2018-09-26T21:03:09.210Z,99570.97
2018-09-26T21:05:38.267Z,99569.31
2018-09-26T21:08:06.950Z,99568.98
2018-09-26T21:10:35.847Z,99576.34
2018-09-26T21:13:04.942Z,99574.41
2018-09-26T21:15:33.747Z,99567.59
2018-09-26T21:18:02.531Z,99574.59
2018-09-26T21:20:31.550Z,99578.09
2018-09-26T21:23:00.382Z,99581.03
2018-09-26T21:25:29.399Z,99577.70
2018-09-26T21:27:58.319Z,99575.81
2018-09-26T21:30:27.051Z,99582.71
2018-09-26T21:32:55.982Z,99571.61
2018-09-26T21:35:24.731Z,99577.39
2018-09-26T21:37:53.581Z,99576.09
2018-09-26T21:40:22.543Z,99569.73
2018-09-26T21:42:51.291Z,99581.74
2018-09-26T21:45:20.162Z,99567.42
2018-09-26T21:47:49.089Z,99571.25
2018-09-26T21:50:18.054Z,99575.00
2018-09-26T21:52:46.994Z,99575.22
2018-09-26T21:55:15.778Z,99578.67
2018-09-26T21:57:44.784Z,99583.78
2018-09-26T22:00:13.678Z,99584.83
2018-09-26T22:02:42.442Z,99576.42
2018-09-26T22:05:11.301Z,99581.55
2018-09-26T22:07:40.154Z,99583.72
2018-09-26T22:10:09.029Z,99578.84
2018-09-26T22:12:37.778Z,99582.81
2018-09-26T22:15:10.906Z,99585.16
2018-09-26T22:17:39.562Z,99585.44
2018-09-26T22:20:08.282Z,99591.50
2018-09-26T22:22:37.600Z,99587.64
2018-09-26T22:25:06.482Z,99579.73
2018-09-26T22:27:35.245Z,99578.41
2018-09-26T22:30:04.574Z,99575.82
2018-09-26T22:32:33.487Z,99575.98
2018-09-26T22:35:02.188Z,99570.95
2018-09-26T22:37:31.022Z,99575.58
2018-09-26T22:40:00.723Z,99578.49
2018-09-26T22:42:29.570Z,99576.33
2018-09-26T22:44:58.522Z,99574.15
2018-09-26T22:47:27.269Z,99577.83
2018-09-26T22:49:56.198Z,99576.13
2018-09-26T22:52:24.963Z,99578.53
2018-09-26T22:54:53.811Z,99578.81
2018-09-26T22:57:22.473Z,99575.00
2018-09-26T22:59:51.129Z,99580.30
2018-09-26T23:02:19.942Z,99576.77
2018-09-26T23:04:48.653Z,99572.20
2018-09-26T23:07:17.610Z,99572.73
2018-09-26T23:09:46.405Z,99571.11
2018-09-26T23:12:15.122Z,99565.14
2018-09-26T23:14:43.933Z,99560.81
2018-09-26T23:17:12.621Z,99578.59
2018-09-26T23:19:41.526Z,99564.16
2018-09-26T23:22:10.196Z,99577.71
2018-09-26T23:24:38.930Z,99569.77
2018-09-26T23:27:07.701Z,99566.89
2018-09-26T23:29:36.716Z,99567.73
2018-09-26T23:32:05.568Z,99565.60
2018-09-26T23:34:34.337Z,99562.63
2018-09-26T23:37:03.025Z,99563.70
2018-09-26T23:39:31.766Z,99560.45
2018-09-26T23:42:00.561Z,99561.45
2018-09-26T23:44:29.494Z,99565.55
2018-09-26T23:46:58.338Z,99560.20
2018-09-26T23:49:27.122Z,99554.56
2018-09-26T23:51:55.878Z,99551.50
2018-09-26T23:54:24.754Z,99552.01
2018-09-26T23:56:53.722Z,99548.75
2018-09-26T23:59:22.429Z,99541.97
